createdAt,value
2019-04-14T00:00:11.858Z,22.43
2019-04-14T00:02:59.862Z,22.53
2019-04-14T00:06:09.127Z,21.03
2019-04-14T00:13:50.802Z,22.63
2019-04-14T00:16:19.220Z,23.63
2019-04-14T00:18:47.634Z,22.17
2019-04-14T00:21:17.174Z,22.27
2019-04-14T00:23:45.772Z,23.47
2019-04-14T00:26:29.576Z,22.30
2019-04-14T00:28:58.484Z,22.00
2019-04-14T00:31:28.570Z,22.80
2019-04-14T00:33:58.795Z,22.33
2019-04-14T00:36:41.592Z,22.80
2019-04-14T00:39:16.177Z,22.33
2019-04-14T00:41:50.862Z,23.20
2019-04-14T00:44:34.294Z,23.37
2019-04-14T00:47:11.452Z,23.03
2019-04-14T00:49:39.912Z,22.70
2019-04-14T00:52:08.448Z,22.77
2019-04-14T00:54:37.098Z,22.10
2019-04-14T00:57:05.586Z,22.97
2019-04-14T00:59:33.980Z,24.13
2019-04-14T01:02:03.459Z,24.17
2019-04-14T01:04:31.880Z,22.10
2019-04-14T01:07:00.279Z,22.90
2019-04-14T01:09:28.736Z,22.73
2019-04-14T01:11:57.391Z,23.40
2019-04-14T01:14:25.914Z,24.90
2019-04-14T01:16:55.792Z,27.63
2019-04-14T01:19:24.474Z,28.97
2019-04-14T01:21:52.874Z,29.63
2019-04-14T01:24:21.295Z,26.00
2019-04-14T01:26:50.658Z,25.10
2019-04-14T01:29:19.169Z,24.27
2019-04-14T01:31:47.624Z,24.90
2019-04-14T01:34:17.232Z,25.13
2019-04-14T01:36:45.706Z,23.90
2019-04-14T01:39:15.379Z,23.43
2019-04-14T01:41:43.870Z,24.77
2019-04-14T01:44:13.259Z,25.97
2019-04-14T01:46:41.876Z,26.17
2019-04-14T01:49:11.523Z,25.27
2019-04-14T01:51:44.265Z,24.97
2019-04-14T01:54:26.417Z,25.20
2019-04-14T01:57:05.155Z,24.67
2019-04-14T01:59:34.655Z,24.80
2019-04-14T02:02:05.110Z,24.33
2019-04-14T02:04:33.543Z,24.87
2019-04-14T02:07:02.068Z,24.07
2019-04-14T02:09:31.634Z,23.83
2019-04-14T02:12:00.146Z,23.83
2019-04-14T02:14:30.015Z,24.23
2019-04-14T02:17:00.824Z,24.17
2019-04-14T02:19:28.704Z,24.43
2019-04-14T02:21:58.394Z,23.93
2019-04-14T02:24:26.919Z,24.40
2019-04-14T02:26:55.289Z,23.60
2019-04-14T02:29:25.420Z,24.83
2019-04-14T02:37:34.886Z,24.10
2019-04-14T02:39:54.231Z,23.40
2019-04-14T02:44:55.411Z,24.77
2019-04-14T02:47:44.526Z,23.53
2019-04-14T02:49:51.145Z,24.07
2019-04-14T02:52:24.403Z,24.80
2019-04-14T02:59:51.284Z,23.23
2019-04-14T03:02:32.343Z,23.13
2019-04-14T03:05:04.112Z,23.33
2019-04-14T03:07:33.492Z,22.73
2019-04-14T03:10:01.103Z,20.67
2019-04-14T03:12:25.167Z,22.20
2019-04-14T03:14:53.558Z,21.37
2019-04-14T03:20:05.299Z,20.70
2019-04-14T03:22:38.938Z,20.67
2019-04-14T03:24:46.602Z,21.17
2019-04-14T03:27:40.346Z,24.47
2019-04-14T03:30:22.142Z,24.23
2019-04-14T03:33:14.175Z,25.37
2019-04-14T03:35:46.491Z,24.13
2019-04-14T03:37:45.317Z,23.87
2019-04-14T03:40:12.293Z,21.90
2019-04-14T03:42:49.691Z,23.23
2019-04-14T03:45:07.516Z,23.80
2019-04-14T03:47:30.662Z,23.57
2019-04-14T03:50:08.375Z,22.77
2019-04-14T03:52:50.268Z,21.90
2019-04-14T03:54:57.106Z,21.77
2019-04-14T03:57:12.904Z,20.90
2019-04-14T03:59:41.358Z,22.20
2019-04-14T04:02:09.756Z,21.57
2019-04-14T04:04:38.214Z,21.23
2019-04-14T04:07:06.625Z,21.10
2019-04-14T04:09:36.660Z,22.70
2019-04-14T04:12:05.358Z,21.43
2019-04-14T04:14:33.742Z,22.07
2019-04-14T04:17:03.791Z,20.87
2019-04-14T04:19:33.973Z,21.83
2019-04-14T04:22:21.453Z,20.67
2019-04-14T04:25:07.308Z,20.93
2019-04-14T04:27:54.692Z,20.67
2019-04-14T04:30:28.085Z,21.47
2019-04-14T04:33:07.176Z,20.90
2019-04-14T04:35:37.240Z,20.57
2019-04-14T04:38:23.413Z,20.33
2019-04-14T04:40:52.826Z,21.03
2019-04-14T04:43:21.459Z,21.00
2019-04-14T04:45:49.867Z,22.57
2019-04-14T04:48:19.527Z,21.43
2019-04-14T04:50:48.044Z,22.00
2019-04-14T04:53:16.440Z,21.83
2019-04-14T04:55:46.404Z,21.30
2019-04-14T04:58:15.194Z,22.43
2019-04-14T05:00:44.192Z,23.30
2019-04-14T05:03:17.552Z,22.23
2019-04-14T05:06:11.900Z,20.90
2019-04-14T05:08:41.984Z,22.00
2019-04-14T05:11:25.105Z,20.77
2019-04-14T05:13:55.390Z,21.10
2019-04-14T05:16:23.904Z,23.33
2019-04-14T05:18:53.022Z,22.63
2019-04-14T05:21:21.755Z,22.37
2019-04-14T05:23:50.156Z,20.67
2019-04-14T05:26:19.801Z,22.70
2019-04-14T05:28:48.509Z,21.83
2019-04-14T05:31:16.856Z,21.83
2019-04-14T05:33:45.262Z,22.43
2019-04-14T05:36:14.927Z,29.80
2019-04-14T05:38:43.460Z,26.70
2019-04-14T05:41:11.856Z,31.70
2019-04-14T05:43:48.161Z,24.07
2019-04-14T05:46:10.448Z,25.67
2019-04-14T05:48:38.850Z,23.10
2019-04-14T05:51:08.511Z,23.43
2019-04-14T05:53:37.273Z,25.40
2019-04-14T05:56:05.888Z,24.93
2019-04-14T05:58:34.284Z,23.63
2019-04-14T06:01:02.685Z,25.10
2019-04-14T06:03:32.094Z,24.07
2019-04-14T06:06:00.913Z,24.00
2019-04-14T06:08:29.317Z,23.60
2019-04-14T06:10:57.731Z,24.03
2019-04-14T06:13:26.162Z,24.10
2019-04-14T06:15:54.561Z,23.87
2019-04-14T06:18:22.976Z,25.40
2019-04-14T06:20:51.405Z,24.13
2019-04-14T06:23:19.807Z,21.70
2019-04-14T06:25:48.209Z,24.17
2019-04-14T06:28:17.094Z,22.20
2019-04-14T06:30:52.850Z,23.30
2019-04-14T06:33:22.944Z,24.33
2019-04-14T06:36:10.358Z,23.93
2019-04-14T06:38:43.104Z,24.17
2019-04-14T06:41:13.177Z,23.73
2019-04-14T06:43:48.620Z,22.13
2019-04-14T06:46:11.763Z,23.43
2019-04-14T06:48:40.148Z,22.10
2019-04-14T06:51:10.993Z,22.70
2019-04-14T06:53:39.452Z,22.73
2019-04-14T06:56:07.853Z,21.77
2019-04-14T06:58:36.252Z,21.80
2019-04-14T07:01:04.937Z,21.13
2019-04-14T07:03:33.339Z,21.50
2019-04-14T07:06:01.742Z,20.80
2019-04-14T07:08:30.274Z,22.07
2019-04-14T07:10:58.676Z,21.30
2019-04-14T07:13:27.142Z,22.03
2019-04-14T07:15:55.649Z,22.03
2019-04-14T07:18:24.052Z,22.53
2019-04-14T07:20:52.444Z,22.67
2019-04-14T07:23:20.904Z,20.87
2019-04-14T07:25:49.306Z,24.27
2019-04-14T07:28:17.696Z,23.47
2019-04-14T07:30:53.858Z,22.83
2019-04-14T07:33:23.901Z,21.67
2019-04-14T07:36:09.896Z,20.83
2019-04-14T07:38:39.940Z,20.83
2019-04-14T07:41:10.002Z,23.57
2019-04-14T07:43:52.450Z,22.33
2019-04-14T07:46:28.497Z,24.83
2019-04-14T07:49:07.999Z,28.97
2019-04-14T07:51:38.046Z,21.50
2019-04-14T07:54:10.690Z,25.10
2019-04-14T07:56:46.894Z,26.50
2019-04-14T07:59:16.943Z,24.27
2019-04-14T08:02:03.659Z,23.20
2019-04-14T08:04:33.779Z,21.63
2019-04-14T08:07:02.187Z,20.10
2019-04-14T08:09:30.634Z,21.83
2019-04-14T08:11:59.032Z,18.87
2019-04-14T08:14:27.430Z,20.47
2019-04-14T08:16:55.845Z,20.10
2019-04-14T08:19:24.263Z,21.33
2019-04-14T08:21:52.662Z,20.93
2019-04-14T08:24:21.131Z,19.13
2019-04-14T08:26:49.534Z,21.23
2019-04-14T08:29:18.004Z,21.50
2019-04-14T08:31:46.598Z,21.47
2019-04-14T08:34:15.013Z,19.73
2019-04-14T08:36:43.412Z,21.23
2019-04-14T08:39:11.846Z,23.63
2019-04-14T08:41:41.891Z,26.13
2019-04-14T08:44:11.970Z,27.20
2019-04-14T08:46:42.084Z,27.97
2019-04-14T08:49:27.392Z,28.30
2019-04-14T08:52:00.039Z,23.83
2019-04-14T08:54:36.037Z,21.80
2019-04-14T08:57:15.129Z,21.97
2019-04-14T08:59:47.915Z,22.10
2019-04-14T09:02:21.214Z,21.83
2019-04-14T09:04:56.816Z,21.70
2019-04-14T09:07:43.161Z,20.30
2019-04-14T09:10:18.997Z,21.30
2019-04-14T09:12:52.198Z,22.00
2019-04-14T09:15:20.608Z,24.03
2019-04-14T09:17:49.028Z,20.63
2019-04-14T09:20:17.457Z,20.40
2019-04-14T09:22:45.913Z,17.90
2019-04-14T09:25:14.378Z,20.13
2019-04-14T09:27:42.822Z,19.33
2019-04-14T09:30:11.496Z,18.70
2019-04-14T09:32:39.903Z,19.10
2019-04-14T09:35:08.656Z,18.73
2019-04-14T09:37:37.036Z,21.03
2019-04-14T09:40:05.977Z,18.17
2019-04-14T09:42:34.685Z,17.70
2019-04-14T09:45:03.534Z,18.40
2019-04-14T09:47:31.923Z,18.13
2019-04-14T09:50:00.352Z,16.97
2019-04-14T09:52:28.763Z,18.83
2019-04-14T09:54:57.182Z,20.47
2019-04-14T09:57:26.012Z,18.50
2019-04-14T09:59:54.416Z,18.27
2019-04-14T10:02:22.823Z,17.73
2019-04-14T10:04:51.251Z,18.87
2019-04-14T10:07:19.674Z,19.67
2019-04-14T10:09:48.144Z,19.67
2019-04-14T10:12:16.564Z,17.23
2019-04-14T10:14:44.969Z,17.77
2019-04-14T10:17:13.380Z,17.93
2019-04-14T10:19:41.849Z,17.40
2019-04-14T10:22:10.295Z,17.23
2019-04-14T10:24:38.767Z,18.33
2019-04-14T10:27:07.267Z,18.53
2019-04-14T10:29:35.700Z,18.33
2019-04-14T10:32:04.168Z,16.53
2019-04-14T10:34:32.614Z,17.33
2019-04-14T10:37:01.014Z,18.80
2019-04-14T10:39:29.420Z,16.70
2019-04-14T10:41:57.852Z,17.80
2019-04-14T10:44:26.596Z,16.20
2019-04-14T10:46:55.004Z,19.23
2019-04-14T10:49:23.847Z,17.23
2019-04-14T10:51:52.248Z,17.70
2019-04-14T10:54:20.655Z,17.13
2019-04-14T10:56:49.223Z,18.13
2019-04-14T10:59:17.635Z,17.83
2019-04-14T11:01:46.035Z,18.03
2019-04-14T11:04:14.971Z,17.93
2019-04-14T11:06:45.024Z,16.80
2019-04-14T11:09:15.413Z,16.97
2019-04-14T11:11:44.277Z,17.23
2019-04-14T11:14:12.695Z,16.53
2019-04-14T11:16:41.099Z,18.23
2019-04-14T11:19:09.577Z,18.10
2019-04-14T11:21:42.584Z,16.77
2019-04-14T11:24:08.119Z,17.87
2019-04-14T11:26:36.574Z,19.77
2019-04-14T11:29:05.217Z,16.90
2019-04-14T11:31:37.679Z,20.13
2019-04-14T11:34:06.879Z,16.80
2019-04-14T11:36:53.179Z,18.03
2019-04-14T11:39:23.029Z,16.43
2019-04-14T11:41:51.491Z,16.43
2019-04-14T11:44:19.960Z,17.87
2019-04-14T11:46:48.499Z,17.70
2019-04-14T11:49:16.902Z,19.67
2019-04-14T11:51:54.741Z,20.03
2019-04-14T11:54:15.735Z,19.57
2019-04-14T11:56:44.224Z,19.83
2019-04-14T11:59:12.692Z,18.07
2019-04-14T12:01:45.883Z,17.60
2019-04-14T12:04:22.163Z,17.83
2019-04-14T12:07:08.506Z,17.43
2019-04-14T12:09:38.568Z,17.17
2019-04-14T12:12:08.629Z,16.80
2019-04-14T12:14:37.085Z,16.60
2019-04-14T12:17:05.581Z,17.33
2019-04-14T12:19:34.015Z,18.47
2019-04-14T12:22:08.376Z,17.47
2019-04-14T12:24:32.664Z,23.67
2019-04-14T12:27:01.071Z,22.00
2019-04-14T12:29:30.445Z,19.07
2019-04-14T12:31:59.615Z,18.23
2019-04-14T12:34:28.144Z,19.27
2019-04-14T12:36:56.617Z,18.07
2019-04-14T12:39:25.113Z,18.80
2019-04-14T12:41:58.321Z,18.40
2019-04-14T12:44:45.035Z,19.33
2019-04-14T12:47:36.590Z,17.47
2019-04-14T12:50:12.817Z,19.40
2019-04-14T12:52:41.236Z,19.37
2019-04-14T12:55:09.972Z,18.73
2019-04-14T12:57:52.499Z,19.13
2019-04-14T13:00:25.535Z,19.33
2019-04-14T13:02:54.538Z,20.37
2019-04-14T13:05:23.368Z,17.03
2019-04-14T13:07:51.770Z,17.53
2019-04-14T13:10:20.358Z,17.73
2019-04-14T13:12:48.836Z,18.60
2019-04-14T13:15:17.241Z,19.70
2019-04-14T13:17:45.778Z,17.33
2019-04-14T13:20:14.587Z,17.77
2019-04-14T13:22:42.993Z,18.60
2019-04-14T13:25:11.738Z,17.90
2019-04-14T13:27:40.309Z,18.63
2019-04-14T13:30:11.414Z,18.60
2019-04-14T13:32:40.616Z,23.90
2019-04-14T13:35:09.961Z,20.13
2019-04-14T13:37:38.352Z,19.17
2019-04-14T13:40:07.196Z,19.37
2019-04-14T13:42:35.628Z,18.17
2019-04-14T13:45:05.050Z,19.70
2019-04-14T13:47:33.458Z,20.13
2019-04-14T13:50:02.002Z,20.27
2019-04-14T13:52:31.075Z,21.20
2019-04-14T13:54:59.691Z,21.63
2019-04-14T13:57:28.324Z,21.80
2019-04-14T13:59:56.726Z,18.90
2019-04-14T14:02:25.122Z,20.40
2019-04-14T14:04:53.663Z,21.47
2019-04-14T14:07:22.065Z,23.47
2019-04-14T14:09:50.908Z,21.70
2019-04-14T14:12:23.779Z,19.30
2019-04-14T14:15:12.266Z,21.10
2019-04-14T14:17:51.159Z,19.97
2019-04-14T14:20:24.138Z,20.57
2019-04-14T14:23:06.594Z,22.67
2019-04-14T14:25:36.634Z,22.53
2019-04-14T14:28:05.211Z,23.93
2019-04-14T14:30:33.776Z,23.90
2019-04-14T14:33:02.188Z,27.33
2019-04-14T14:35:30.588Z,27.07
2019-04-14T14:37:59.059Z,27.00
2019-04-14T14:40:27.478Z,23.73
2019-04-14T14:42:55.895Z,24.20
2019-04-14T14:45:39.367Z,24.40
2019-04-14T14:48:17.962Z,23.43
2019-04-14T14:51:03.371Z,26.03
2019-04-14T14:53:31.845Z,22.63
2019-04-14T14:56:00.251Z,22.57
2019-04-14T14:58:28.845Z,23.33
2019-04-14T15:00:58.620Z,22.57
2019-04-14T15:03:26.946Z,22.33
2019-04-14T15:05:55.415Z,23.13
2019-04-14T15:08:23.816Z,21.97
2019-04-14T15:10:52.221Z,22.07
2019-04-14T15:13:20.650Z,23.00
2019-04-14T15:15:49.127Z,23.63
2019-04-14T15:18:17.534Z,22.57
2019-04-14T15:20:46.002Z,21.97
2019-04-14T15:23:24.262Z,20.37
2019-04-14T15:25:44.538Z,19.97
2019-04-14T15:28:15.629Z,20.53
2019-04-14T15:30:43.326Z,22.60
2019-04-14T15:33:11.744Z,22.40
2019-04-14T15:35:40.186Z,20.00
2019-04-14T15:38:08.588Z,21.90
2019-04-14T15:40:37.068Z,20.77
2019-04-14T15:43:05.887Z,20.37
2019-04-14T15:45:34.303Z,19.10
2019-04-14T15:48:02.705Z,21.43
2019-04-14T15:50:31.139Z,20.43
2019-04-14T15:52:59.548Z,19.93
2019-04-14T15:55:27.974Z,20.57
2019-04-14T15:58:14.530Z,19.73
2019-04-14T16:00:44.583Z,19.63
2019-04-14T16:03:17.279Z,22.80
2019-04-14T16:06:05.403Z,20.23
2019-04-14T16:08:50.251Z,20.73
2019-04-14T16:11:20.721Z,20.87
2019-04-14T16:14:02.583Z,21.10
2019-04-14T16:16:32.728Z,21.90
2019-04-14T16:19:08.601Z,21.37
2019-04-14T16:21:37.019Z,21.60
2019-04-14T16:24:05.467Z,22.03
2019-04-14T16:26:35.523Z,22.53
2019-04-14T16:29:08.550Z,22.47
2019-04-14T16:31:54.111Z,22.23
2019-04-14T16:34:24.153Z,25.77
2019-04-14T16:36:53.531Z,21.90
2019-04-14T16:39:22.429Z,23.37
2019-04-14T16:41:51.008Z,23.83
2019-04-14T16:44:19.422Z,22.90
2019-04-14T16:46:48.063Z,22.43
2019-04-14T16:49:16.900Z,22.27
2019-04-14T16:51:54.348Z,22.23
2019-04-14T16:54:30.636Z,21.63
2019-04-14T16:57:00.698Z,22.60
2019-04-14T16:59:29.165Z,22.13
2019-04-14T17:02:10.164Z,23.47
2019-04-14T17:04:27.744Z,22.83
2019-04-14T17:06:56.167Z,24.20
2019-04-14T17:09:24.569Z,23.50
2019-04-14T17:11:53.029Z,23.33
2019-04-14T17:14:25.736Z,22.37
2019-04-14T17:16:58.326Z,23.17
2019-04-14T17:19:28.391Z,22.17
2019-04-14T17:21:58.441Z,24.00
2019-04-14T17:24:34.258Z,23.30
2019-04-14T17:27:13.409Z,23.97
2019-04-14T17:29:46.526Z,25.13
2019-04-14T17:32:16.576Z,25.50
2019-04-14T17:34:52.873Z,24.73
2019-04-14T17:37:25.539Z,25.20
2019-04-14T17:39:58.419Z,28.33
2019-04-14T17:42:28.454Z,30.20
2019-04-14T17:45:04.329Z,26.63
2019-04-14T17:47:34.447Z,22.90
2019-04-14T17:50:04.763Z,22.50
2019-04-14T17:52:37.285Z,22.00
2019-04-14T17:55:14.891Z,22.27
2019-04-14T17:57:59.969Z,23.60
2019-04-14T18:00:42.026Z,25.90
2019-04-14T18:03:21.221Z,25.13
2019-04-14T18:05:54.076Z,23.83
2019-04-14T18:08:24.122Z,23.60
2019-04-14T18:11:09.494Z,24.00
2019-04-14T18:13:42.179Z,23.60
2019-04-14T18:16:21.424Z,23.23
2019-04-14T18:19:03.619Z,23.00
2019-04-14T18:21:32.152Z,22.90
2019-04-14T18:24:00.551Z,24.73
2019-04-14T18:26:28.953Z,23.97
2019-04-14T18:29:02.201Z,25.47
2019-04-14T18:31:46.951Z,25.73
2019-04-14T18:34:17.023Z,24.70
2019-04-14T18:36:52.922Z,23.83
2019-04-14T18:39:39.443Z,25.00
2019-04-14T18:42:15.268Z,25.80
2019-04-14T18:44:51.521Z,27.87
2019-04-14T18:47:36.603Z,25.27
2019-04-14T18:50:13.281Z,27.17
2019-04-14T18:52:55.173Z,25.27
2019-04-14T18:55:28.213Z,24.90
2019-04-14T19:01:03.550Z,26.70
2019-04-14T19:03:32.003Z,25.00
2019-04-14T19:06:00.385Z,25.33
2019-04-14T19:08:28.812Z,28.30
2019-04-14T19:10:58.883Z,28.80
2019-04-14T19:13:29.004Z,26.13
2019-04-14T19:15:59.097Z,26.83
2019-04-14T19:18:29.136Z,26.50
2019-04-14T19:20:59.187Z,28.73
2019-04-14T19:23:27.625Z,27.87
2019-04-14T19:25:56.036Z,27.03
2019-04-14T19:28:24.448Z,26.13
2019-04-14T19:30:53.301Z,25.60
2019-04-14T19:33:21.708Z,26.93
2019-04-14T19:35:50.112Z,27.27
2019-04-14T19:38:18.608Z,27.43
2019-04-14T19:40:48.553Z,27.27
2019-04-14T19:43:23.744Z,28.23
2019-04-14T19:45:47.276Z,27.37
2019-04-14T19:48:15.672Z,28.53
2019-04-14T19:50:44.068Z,28.40
2019-04-14T19:53:12.714Z,27.77
2019-04-14T19:55:41.132Z,27.43
2019-04-14T19:58:09.542Z,27.83
2019-04-14T20:00:38.138Z,26.03
2019-04-14T20:03:06.537Z,26.30
2019-04-14T20:05:35.023Z,26.23
2019-04-14T20:08:03.685Z,26.63
2019-04-14T20:10:32.098Z,26.53
2019-04-14T20:13:00.587Z,26.60
2019-04-14T20:15:30.984Z,26.73
2019-04-14T20:18:16.877Z,25.60
2019-04-14T20:20:56.845Z,26.67
2019-04-14T20:23:35.676Z,26.80
2019-04-14T20:26:08.999Z,27.33
2019-04-14T20:28:39.042Z,27.63
2019-04-14T20:31:25.420Z,28.63
2019-04-14T20:33:55.552Z,26.70
2019-04-14T20:36:24.068Z,27.47
2019-04-14T20:38:52.655Z,26.57
2019-04-14T20:41:21.027Z,28.17
2019-04-14T20:44:08.768Z,27.13
2019-04-14T20:46:37.215Z,27.10
2019-04-14T20:51:54.720Z,26.20
2019-04-14T21:00:46.500Z,28.40
2019-04-14T21:06:23.272Z,29.37
2019-04-14T21:09:10.799Z,28.80
2019-04-14T21:11:58.442Z,28.70
2019-04-14T21:14:45.969Z,28.40
2019-04-14T21:26:17.545Z,28.83
2019-04-14T21:29:24.397Z,28.47
2019-04-14T21:35:11.509Z,28.80
2019-04-14T21:37:59.031Z,29.40
2019-04-14T21:40:46.616Z,30.27
2019-04-14T21:43:34.376Z,27.10
2019-04-14T21:46:02.746Z,27.67
2019-04-14T21:48:31.148Z,27.07
2019-04-14T21:50:59.544Z,27.97
2019-04-14T21:56:21.541Z,29.50
2019-04-14T22:02:07.363Z,26.63
2019-04-14T22:15:49.804Z,29.43
2019-04-14T22:21:07.312Z,30.53
2019-04-14T22:26:26.265Z,31.20
2019-04-14T22:28:55.095Z,30.70
2019-04-14T22:31:25.072Z,30.93
2019-04-14T22:33:53.600Z,30.17
2019-04-14T22:36:21.990Z,26.33
2019-04-14T22:38:50.391Z,26.47
2019-04-14T22:41:38.027Z,26.83
2019-04-14T22:44:06.452Z,27.30
2019-04-14T22:46:34.859Z,29.43
2019-04-14T22:49:03.299Z,28.87
2019-04-14T22:51:31.700Z,28.53
2019-04-14T22:54:00.100Z,27.60
2019-04-14T22:56:38.711Z,29.50
2019-04-14T22:58:58.655Z,26.87
2019-04-14T23:02:05.615Z,28.93
2019-04-14T23:08:01.678Z,29.43
2019-04-14T23:16:17.130Z,26.10
2019-04-14T23:26:52.707Z,27.53
2019-04-14T23:29:19.292Z,25.40
2019-04-14T23:31:47.763Z,25.20
2019-04-14T23:36:50.134Z,24.27
2019-04-14T23:41:52.970Z,28.07
2019-04-14T23:46:55.803Z,26.47
2019-04-14T23:49:24.244Z,26.87
2019-04-14T23:51:52.652Z,26.60
2019-04-14T23:54:21.062Z,26.53
2019-04-14T23:59:23.137Z,27.17
